sensor_id;sensor_type;location;lat;lon;timestamp;temperature;humidity
19044;DHT22;9654;52.302;8.120;2022-07-03T00:00:03;18.60;99.90
19044;DHT22;9654;52.302;8.120;2022-07-03T00:02:30;18.50;99.90
19044;DHT22;9654;52.302;8.120;2022-07-03T00:04:56;18.40;99.90
19044;DHT22;9654;52.302;8.120;2022-07-03T00:07:23;18.40;99.90
19044;DHT22;9654;52.302;8.120;2022-07-03T00:09:50;18.30;99.90
19044;DHT22;9654;52.302;8.120;2022-07-03T00:12:18;18.30;99.90
19044;DHT22;9654;52.302;8.120;2022-07-03T00:14:45;18.20;99.90
19044;DHT22;9654;52.302;8.120;2022-07-03T00:17:12;18.10;99.90
19044;DHT22;9654;52.302;8.120;2022-07-03T00:19:38;18.00;99.90
19044;DHT22;9654;52.302;8.120;2022-07-03T00:22:07;17.90;99.90
19044;DHT22;9654;52.302;8.120;2022-07-03T00:24:42;17.90;99.90
19044;DHT22;9654;52.302;8.120;2022-07-03T00:27:09;17.80;99.90
19044;DHT22;9654;52.302;8.120;2022-07-03T00:29:40;17.70;99.90
19044;DHT22;9654;52.302;8.120;2022-07-03T00:32:09;17.50;99.90
19044;DHT22;9654;52.302;8.120;2022-07-03T00:34:37;17.50;99.90
19044;DHT22;9654;52.302;8.120;2022-07-03T00:37:06;17.40;99.90
19044;DHT22;9654;52.302;8.120;2022-07-03T00:39:35;17.30;99.90
19044;DHT22;9654;52.302;8.120;2022-07-03T00:42:05;17.30;99.90
19044;DHT22;9654;52.302;8.120;2022-07-03T00:44:35;17.20;99.90
19044;DHT22;9654;52.302;8.120;2022-07-03T00:47:06;17.20;99.90
19044;DHT22;9654;52.302;8.120;2022-07-03T00:49:35;17.10;99.90
19044;DHT22;9654;52.302;8.120;2022-07-03T00:52:03;17.10;99.90
19044;DHT22;9654;52.302;8.120;2022-07-03T00:54:33;17.10;99.90
19044;DHT22;9654;52.302;8.120;2022-07-03T00:57:01;17.00;99.90
19044;DHT22;9654;52.302;8.120;2022-07-03T00:59:28;16.90;99.90
19044;DHT22;9654;52.302;8.120;2022-07-03T01:02:02;16.90;99.90
19044;DHT22;9654;52.302;8.120;2022-07-03T01:04:39;16.80;99.90
19044;DHT22;9654;52.302;8.120;2022-07-03T01:07:12;16.80;99.90
19044;DHT22;9654;52.302;8.120;2022-07-03T01:09:52;16.70;99.90
19044;DHT22;9654;52.302;8.120;2022-07-03T01:12:31;16.70;99.90
19044;DHT22;9654;52.302;8.120;2022-07-03T01:15:05;16.70;99.90
19044;DHT22;9654;52.302;8.120;2022-07-03T01:17:39;16.60;99.90
19044;DHT22;9654;52.302;8.120;2022-07-03T01:20:07;16.60;99.90
19044;DHT22;9654;52.302;8.120;2022-07-03T01:22:36;16.60;99.90
19044;DHT22;9654;52.302;8.120;2022-07-03T01:25:13;16.60;99.90
19044;DHT22;9654;52.302;8.120;2022-07-03T01:27:56;16.50;99.90
19044;DHT22;9654;52.302;8.120;2022-07-03T01:30:25;16.50;99.90
19044;DHT22;9654;52.302;8.120;2022-07-03T01:32:57;16.40;99.90
19044;DHT22;9654;52.302;8.120;2022-07-03T01:35:28;16.40;99.90
19044;DHT22;9654;52.302;8.120;2022-07-03T01:37:55;16.50;99.90
19044;DHT22;9654;52.302;8.120;2022-07-03T01:40:23;16.50;99.90
19044;DHT22;9654;52.302;8.120;2022-07-03T01:42:54;16.50;99.90
19044;DHT22;9654;52.302;8.120;2022-07-03T01:45:21;16.50;99.90
19044;DHT22;9654;52.302;8.120;2022-07-03T01:47:51;16.60;99.90
19044;DHT22;9654;52.302;8.120;2022-07-03T01:50:19;16.60;99.90
19044;DHT22;9654;52.302;8.120;2022-07-03T01:52:48;16.60;99.90
19044;DHT22;9654;52.302;8.120;2022-07-03T01:55:15;16.60;99.90
19044;DHT22;9654;52.302;8.120;2022-07-03T01:57:44;16.60;99.90
19044;DHT22;9654;52.302;8.120;2022-07-03T02:00:15;16.60;99.90
19044;DHT22;9654;52.302;8.120;2022-07-03T02:02:49;16.60;99.90
19044;DHT22;9654;52.302;8.120;2022-07-03T02:05:26;16.60;99.90
19044;DHT22;9654;52.302;8.120;2022-07-03T02:08:00;16.60;99.90
19044;DHT22;9654;52.302;8.120;2022-07-03T02:10:31;16.50;99.90
19044;DHT22;9654;52.302;8.120;2022-07-03T02:13:01;16.50;99.90
19044;DHT22;9654;52.302;8.120;2022-07-03T02:15:35;16.50;99.90
19044;DHT22;9654;52.302;8.120;2022-07-03T02:18:09;16.50;99.90
19044;DHT22;9654;52.302;8.120;2022-07-03T02:20:39;16.40;99.90
19044;DHT22;9654;52.302;8.120;2022-07-03T02:23:13;16.40;99.90
19044;DHT22;9654;52.302;8.120;2022-07-03T02:25:44;16.30;99.90
19044;DHT22;9654;52.302;8.120;2022-07-03T02:28:25;16.30;99.90
19044;DHT22;9654;52.302;8.120;2022-07-03T02:31:01;16.30;99.90
19044;DHT22;9654;52.302;8.120;2022-07-03T02:33:30;16.20;99.90
19044;DHT22;9654;52.302;8.120;2022-07-03T02:35:58;16.30;99.90
19044;DHT22;9654;52.302;8.120;2022-07-03T02:38:27;16.20;99.90
19044;DHT22;9654;52.302;8.120;2022-07-03T02:40:57;16.20;99.90
19044;DHT22;9654;52.302;8.120;2022-07-03T02:43:33;16.10;99.90
19044;DHT22;9654;52.302;8.120;2022-07-03T02:46:06;16.00;99.90
19044;DHT22;9654;52.302;8.120;2022-07-03T02:48:51;16.00;99.90
19044;DHT22;9654;52.302;8.120;2022-07-03T02:51:23;15.90;99.90
19044;DHT22;9654;52.302;8.120;2022-07-03T02:53:57;15.80;99.90
19044;DHT22;9654;52.302;8.120;2022-07-03T02:56:33;15.70;99.90
19044;DHT22;9654;52.302;8.120;2022-07-03T02:59:12;15.70;99.90
19044;DHT22;9654;52.302;8.120;2022-07-03T03:01:47;15.60;99.90
19044;DHT22;9654;52.302;8.120;2022-07-03T03:04:21;15.50;99.90
19044;DHT22;9654;52.302;8.120;2022-07-03T03:06:54;15.50;99.90
19044;DHT22;9654;52.302;8.120;2022-07-03T03:09:27;15.40;99.90
19044;DHT22;9654;52.302;8.120;2022-07-03T03:12:01;15.40;99.90
19044;DHT22;9654;52.302;8.120;2022-07-03T03:14:34;15.30;99.90
19044;DHT22;9654;52.302;8.120;2022-07-03T03:17:05;15.40;99.90
19044;DHT22;9654;52.302;8.120;2022-07-03T03:19:37;15.30;99.90
19044;DHT22;9654;52.302;8.120;2022-07-03T03:22:13;15.30;99.90
19044;DHT22;9654;52.302;8.120;2022-07-03T03:24:43;15.20;99.90
19044;DHT22;9654;52.302;8.120;2022-07-03T03:27:10;15.20;99.90
19044;DHT22;9654;52.302;8.120;2022-07-03T03:29:37;15.20;99.90
19044;DHT22;9654;52.302;8.120;2022-07-03T03:32:07;15.20;99.90
19044;DHT22;9654;52.302;8.120;2022-07-03T03:34:34;15.20;99.90
19044;DHT22;9654;52.302;8.120;2022-07-03T03:37:01;15.20;99.90
19044;DHT22;9654;52.302;8.120;2022-07-03T03:39:28;15.20;99.90
19044;DHT22;9654;52.302;8.120;2022-07-03T03:41:55;15.40;99.90
19044;DHT22;9654;52.302;8.120;2022-07-03T03:44:22;15.40;99.90
19044;DHT22;9654;52.302;8.120;2022-07-03T03:46:50;15.40;99.90
19044;DHT22;9654;52.302;8.120;2022-07-03T03:49:18;15.30;99.90
19044;DHT22;9654;52.302;8.120;2022-07-03T03:51:45;15.40;99.90
19044;DHT22;9654;52.302;8.120;2022-07-03T03:54:12;15.40;99.90
19044;DHT22;9654;52.302;8.120;2022-07-03T03:56:38;15.40;99.90
19044;DHT22;9654;52.302;8.120;2022-07-03T03:59:05;15.50;99.90
19044;DHT22;9654;52.302;8.120;2022-07-03T04:01:32;15.50;99.90
19044;DHT22;9654;52.302;8.120;2022-07-03T04:03:59;15.50;99.90
19044;DHT22;9654;52.302;8.120;2022-07-03T04:06:27;15.50;99.90
19044;DHT22;9654;52.302;8.120;2022-07-03T04:08:53;15.60;99.90
19044;DHT22;9654;52.302;8.120;2022-07-03T04:11:20;15.60;99.90
19044;DHT22;9654;52.302;8.120;2022-07-03T04:13:47;15.60;99.90
19044;DHT22;9654;52.302;8.120;2022-07-03T04:16:14;15.60;99.90
19044;DHT22;9654;52.302;8.120;2022-07-03T04:18:40;15.70;99.90
19044;DHT22;9654;52.302;8.120;2022-07-03T04:21:07;15.80;99.90
19044;DHT22;9654;52.302;8.120;2022-07-03T04:23:36;15.90;99.90
19044;DHT22;9654;52.302;8.120;2022-07-03T04:26:03;15.90;99.90
19044;DHT22;9654;52.302;8.120;2022-07-03T04:28:30;16.00;99.90
19044;DHT22;9654;52.302;8.120;2022-07-03T04:30:57;16.00;99.90
19044;DHT22;9654;52.302;8.120;2022-07-03T04:33:24;16.10;99.90
19044;DHT22;9654;52.302;8.120;2022-07-03T04:35:51;16.10;99.90
19044;DHT22;9654;52.302;8.120;2022-07-03T04:38:17;16.20;99.90
19044;DHT22;9654;52.302;8.120;2022-07-03T04:40:45;16.20;99.90
19044;DHT22;9654;52.302;8.120;2022-07-03T04:43:12;16.30;99.90
19044;DHT22;9654;52.302;8.120;2022-07-03T04:45:41;16.30;99.90
19044;DHT22;9654;52.302;8.120;2022-07-03T04:48:08;16.40;99.90
19044;DHT22;9654;52.302;8.120;2022-07-03T04:50:35;16.40;99.90
19044;DHT22;9654;52.302;8.120;2022-07-03T04:53:02;16.50;99.90
19044;DHT22;9654;52.302;8.120;2022-07-03T04:55:28;16.60;99.90
19044;DHT22;9654;52.302;8.120;2022-07-03T04:57:56;16.80;99.90
19044;DHT22;9654;52.302;8.120;2022-07-03T05:00:23;16.80;99.90
19044;DHT22;9654;52.302;8.120;2022-07-03T05:02:50;16.90;99.90
19044;DHT22;9654;52.302;8.120;2022-07-03T05:05:17;17.00;99.90
19044;DHT22;9654;52.302;8.120;2022-07-03T05:07:43;17.10;99.90
19044;DHT22;9654;52.302;8.120;2022-07-03T05:10:10;17.20;99.90
19044;DHT22;9654;52.302;8.120;2022-07-03T05:12:37;17.40;99.90
19044;DHT22;9654;52.302;8.120;2022-07-03T05:15:06;17.50;99.90
19044;DHT22;9654;52.302;8.120;2022-07-03T05:17:33;17.70;99.90
19044;DHT22;9654;52.302;8.120;2022-07-03T05:20:00;17.90;99.90
19044;DHT22;9654;52.302;8.120;2022-07-03T05:22:41;18.10;99.90
19044;DHT22;9654;52.302;8.120;2022-07-03T05:25:08;18.30;99.90
19044;DHT22;9654;52.302;8.120;2022-07-03T05:27:36;18.50;99.90
19044;DHT22;9654;52.302;8.120;2022-07-03T05:30:05;18.60;99.90
19044;DHT22;9654;52.302;8.120;2022-07-03T05:32:32;18.70;99.90
19044;DHT22;9654;52.302;8.120;2022-07-03T05:34:58;18.80;99.90
19044;DHT22;9654;52.302;8.120;2022-07-03T05:37:26;19.00;99.90
19044;DHT22;9654;52.302;8.120;2022-07-03T05:39:53;19.10;99.90
19044;DHT22;9654;52.302;8.120;2022-07-03T05:42:19;19.20;99.90
19044;DHT22;9654;52.302;8.120;2022-07-03T05:44:46;19.40;99.90
19044;DHT22;9654;52.302;8.120;2022-07-03T05:47:14;19.60;99.90
19044;DHT22;9654;52.302;8.120;2022-07-03T05:49:41;19.80;99.90
19044;DHT22;9654;52.302;8.120;2022-07-03T05:52:08;20.00;99.90
19044;DHT22;9654;52.302;8.120;2022-07-03T05:54:35;20.10;99.90
19044;DHT22;9654;52.302;8.120;2022-07-03T05:57:01;20.20;99.90
19044;DHT22;9654;52.302;8.120;2022-07-03T05:59:28;20.30;99.90
19044;DHT22;9654;52.302;8.120;2022-07-03T06:01:55;20.40;99.90
19044;DHT22;9654;52.302;8.120;2022-07-03T06:04:23;20.50;99.90
19044;DHT22;9654;52.302;8.120;2022-07-03T06:06:50;20.60;99.90
19044;DHT22;9654;52.302;8.120;2022-07-03T06:09:16;20.70;99.90
19044;DHT22;9654;52.302;8.120;2022-07-03T06:11:43;20.70;99.90
19044;DHT22;9654;52.302;8.120;2022-07-03T06:14:10;20.90;99.90
19044;DHT22;9654;52.302;8.120;2022-07-03T06:16:37;21.00;99.90
19044;DHT22;9654;52.302;8.120;2022-07-03T06:19:03;21.10;99.90
19044;DHT22;9654;52.302;8.120;2022-07-03T06:21:32;21.20;99.90
19044;DHT22;9654;52.302;8.120;2022-07-03T06:23:59;21.40;99.90
19044;DHT22;9654;52.302;8.120;2022-07-03T06:26:26;21.40;99.90
19044;DHT22;9654;52.302;8.120;2022-07-03T06:28:53;21.50;99.90
19044;DHT22;9654;52.302;8.120;2022-07-03T06:31:19;21.60;99.90
19044;DHT22;9654;52.302;8.120;2022-07-03T06:33:46;21.70;99.90
19044;DHT22;9654;52.302;8.120;2022-07-03T06:36:13;21.90;99.90
19044;DHT22;9654;52.302;8.120;2022-07-03T06:38:41;22.00;99.90
19044;DHT22;9654;52.302;8.120;2022-07-03T06:41:08;22.10;99.90
19044;DHT22;9654;52.302;8.120;2022-07-03T06:43:34;22.20;99.90
19044;DHT22;9654;52.302;8.120;2022-07-03T06:46:01;22.30;99.90
19044;DHT22;9654;52.302;8.120;2022-07-03T06:48:28;22.20;99.90
19044;DHT22;9654;52.302;8.120;2022-07-03T06:50:54;22.30;99.90
19044;DHT22;9654;52.302;8.120;2022-07-03T06:53:21;22.30;99.90
19044;DHT22;9654;52.302;8.120;2022-07-03T06:55:49;22.40;99.90
19044;DHT22;9654;52.302;8.120;2022-07-03T06:58:16;22.40;99.90
19044;DHT22;9654;52.302;8.120;2022-07-03T07:00:42;22.50;99.90
19044;DHT22;9654;52.302;8.120;2022-07-03T07:03:09;22.50;99.90
19044;DHT22;9654;52.302;8.120;2022-07-03T07:05:36;22.70;99.90
19044;DHT22;9654;52.302;8.120;2022-07-03T07:08:03;22.80;99.90
19044;DHT22;9654;52.302;8.120;2022-07-03T07:10:30;22.90;99.90
19044;DHT22;9654;52.302;8.120;2022-07-03T07:12:58;23.00;99.90
19044;DHT22;9654;52.302;8.120;2022-07-03T07:15:25;23.20;99.90
19044;DHT22;9654;52.302;8.120;2022-07-03T07:17:51;23.40;99.90
19044;DHT22;9654;52.302;8.120;2022-07-03T07:20:18;23.50;99.90
19044;DHT22;9654;52.302;8.120;2022-07-03T07:22:45;23.60;99.90
19044;DHT22;9654;52.302;8.120;2022-07-03T07:25:12;23.90;99.90
19044;DHT22;9654;52.302;8.120;2022-07-03T07:27:39;24.10;99.90
19044;DHT22;9654;52.302;8.120;2022-07-03T07:30:08;24.10;99.90
19044;DHT22;9654;52.302;8.120;2022-07-03T07:32:35;24.20;99.90
19044;DHT22;9654;52.302;8.120;2022-07-03T07:35:02;24.30;99.90
19044;DHT22;9654;52.302;8.120;2022-07-03T07:37:30;24.30;99.90
19044;DHT22;9654;52.302;8.120;2022-07-03T07:39:57;24.40;99.90
19044;DHT22;9654;52.302;8.120;2022-07-03T07:42:24;24.40;99.90
19044;DHT22;9654;52.302;8.120;2022-07-03T07:44:53;24.50;99.90
19044;DHT22;9654;52.302;8.120;2022-07-03T07:47:21;24.60;99.90
19044;DHT22;9654;52.302;8.120;2022-07-03T07:49:48;24.70;99.90
19044;DHT22;9654;52.302;8.120;2022-07-03T07:52:14;24.70;99.90
19044;DHT22;9654;52.302;8.120;2022-07-03T07:54:41;24.90;99.90
19044;DHT22;9654;52.302;8.120;2022-07-03T07:57:08;24.90;99.90
19044;DHT22;9654;52.302;8.120;2022-07-03T07:59:35;24.90;99.90
19044;DHT22;9654;52.302;8.120;2022-07-03T08:02:02;24.90;99.90
19044;DHT22;9654;52.302;8.120;2022-07-03T08:04:47;25.00;99.90
19044;DHT22;9654;52.302;8.120;2022-07-03T08:07:31;25.10;99.90
19044;DHT22;9654;52.302;8.120;2022-07-03T08:09:58;25.10;99.90
19044;DHT22;9654;52.302;8.120;2022-07-03T08:12:25;25.10;99.90
19044;DHT22;9654;52.302;8.120;2022-07-03T08:14:52;25.10;99.90
19044;DHT22;9654;52.302;8.120;2022-07-03T08:17:18;25.20;99.90
19044;DHT22;9654;52.302;8.120;2022-07-03T08:19:46;25.30;99.90
19044;DHT22;9654;52.302;8.120;2022-07-03T08:22:13;25.40;99.90
19044;DHT22;9654;52.302;8.120;2022-07-03T08:24:40;25.40;99.90
19044;DHT22;9654;52.302;8.120;2022-07-03T08:27:07;25.50;99.90
19044;DHT22;9654;52.302;8.120;2022-07-03T08:29:33;25.40;99.90
19044;DHT22;9654;52.302;8.120;2022-07-03T08:32:00;25.60;99.90
19044;DHT22;9654;52.302;8.120;2022-07-03T08:34:27;25.60;99.90
19044;DHT22;9654;52.302;8.120;2022-07-03T08:36:55;25.60;99.90
19044;DHT22;9654;52.302;8.120;2022-07-03T08:39:22;25.80;99.90
19044;DHT22;9654;52.302;8.120;2022-07-03T08:41:49;25.90;99.90
19044;DHT22;9654;52.302;8.120;2022-07-03T08:44:37;26.00;99.90
19044;DHT22;9654;52.302;8.120;2022-07-03T08:47:08;26.00;99.90
19044;DHT22;9654;52.302;8.120;2022-07-03T08:49:38;26.00;99.90
19044;DHT22;9654;52.302;8.120;2022-07-03T08:52:07;26.10;99.90
19044;DHT22;9654;52.302;8.120;2022-07-03T08:54:37;26.20;99.90
19044;DHT22;9654;52.302;8.120;2022-07-03T08:57:05;26.30;99.90
19044;DHT22;9654;52.302;8.120;2022-07-03T08:59:36;26.50;99.90
19044;DHT22;9654;52.302;8.120;2022-07-03T09:02:03;26.70;99.90
19044;DHT22;9654;52.302;8.120;2022-07-03T09:04:31;26.60;99.90
19044;DHT22;9654;52.302;8.120;2022-07-03T09:06:59;26.50;99.90
19044;DHT22;9654;52.302;8.120;2022-07-03T09:09:27;26.70;99.90
19044;DHT22;9654;52.302;8.120;2022-07-03T09:11:54;26.80;99.90
19044;DHT22;9654;52.302;8.120;2022-07-03T09:14:21;26.80;99.60
19044;DHT22;9654;52.302;8.120;2022-07-03T09:16:48;26.70;99.80
19044;DHT22;9654;52.302;8.120;2022-07-03T09:21:59;26.70;99.90
19044;DHT22;9654;52.302;8.120;2022-07-03T09:24:27;26.60;99.90
19044;DHT22;9654;52.302;8.120;2022-07-03T09:26:59;26.60;99.90
19044;DHT22;9654;52.302;8.120;2022-07-03T09:29:25;26.80;99.90
19044;DHT22;9654;52.302;8.120;2022-07-03T09:31:55;26.80;99.90
19044;DHT22;9654;52.302;8.120;2022-07-03T09:34:22;26.80;99.90
19044;DHT22;9654;52.302;8.120;2022-07-03T09:36:52;26.90;99.10
19044;DHT22;9654;52.302;8.120;2022-07-03T09:39:24;27.10;98.70
19044;DHT22;9654;52.302;8.120;2022-07-03T09:41:57;27.20;98.90
19044;DHT22;9654;52.302;8.120;2022-07-03T09:44:36;27.10;99.30
19044;DHT22;9654;52.302;8.120;2022-07-03T09:47:07;27.30;98.30
19044;DHT22;9654;52.302;8.120;2022-07-03T09:49:45;27.40;98.30
19044;DHT22;9654;52.302;8.120;2022-07-03T09:55:15;27.50;97.90
19044;DHT22;9654;52.302;8.120;2022-07-03T09:57:46;27.60;98.10
19044;DHT22;9654;52.302;8.120;2022-07-03T10:00:17;27.50;98.60
19044;DHT22;9654;52.302;8.120;2022-07-03T10:02:56;27.30;98.20
19044;DHT22;9654;52.302;8.120;2022-07-03T10:05:24;27.50;98.50
19044;DHT22;9654;52.302;8.120;2022-07-03T10:07:52;27.50;98.50
19044;DHT22;9654;52.302;8.120;2022-07-03T10:10:20;27.90;99.30
19044;DHT22;9654;52.302;8.120;2022-07-03T10:12:50;28.20;98.00
19044;DHT22;9654;52.302;8.120;2022-07-03T10:15:17;28.50;98.30
19044;DHT22;9654;52.302;8.120;2022-07-03T10:17:47;28.80;97.20
19044;DHT22;9654;52.302;8.120;2022-07-03T10:20:15;28.70;97.80
19044;DHT22;9654;52.302;8.120;2022-07-03T10:22:46;28.90;97.40
19044;DHT22;9654;52.302;8.120;2022-07-03T10:25:14;28.80;97.20
19044;DHT22;9654;52.302;8.120;2022-07-03T10:27:42;28.50;96.80
19044;DHT22;9654;52.302;8.120;2022-07-03T10:30:11;28.10;96.90
19044;DHT22;9654;52.302;8.120;2022-07-03T10:32:39;27.70;97.60
19044;DHT22;9654;52.302;8.120;2022-07-03T10:35:06;27.30;97.60
19044;DHT22;9654;52.302;8.120;2022-07-03T10:37:49;27.20;97.10
19044;DHT22;9654;52.302;8.120;2022-07-03T10:40:25;27.20;97.40
19044;DHT22;9654;52.302;8.120;2022-07-03T10:43:18;27.00;97.20
19044;DHT22;9654;52.302;8.120;2022-07-03T10:46:11;27.10;97.70
19044;DHT22;9654;52.302;8.120;2022-07-03T10:48:58;27.20;97.20
19044;DHT22;9654;52.302;8.120;2022-07-03T10:51:27;27.00;97.80
19044;DHT22;9654;52.302;8.120;2022-07-03T10:54:14;26.80;97.20
19044;DHT22;9654;52.302;8.120;2022-07-03T10:57:06;26.80;97.30
19044;DHT22;9654;52.302;8.120;2022-07-03T11:00:03;26.90;97.30
19044;DHT22;9654;52.302;8.120;2022-07-03T11:02:37;27.30;97.20
19044;DHT22;9654;52.302;8.120;2022-07-03T11:05:24;27.80;97.20
19044;DHT22;9654;52.302;8.120;2022-07-03T11:08:10;28.10;96.60
19044;DHT22;9654;52.302;8.120;2022-07-03T11:10:41;28.20;96.00
19044;DHT22;9654;52.302;8.120;2022-07-03T11:13:17;28.70;95.40
19044;DHT22;9654;52.302;8.120;2022-07-03T11:15:52;28.70;95.40
19044;DHT22;9654;52.302;8.120;2022-07-03T11:18:30;28.80;94.80
19044;DHT22;9654;52.302;8.120;2022-07-03T11:21:32;28.60;95.00
19044;DHT22;9654;52.302;8.120;2022-07-03T11:27:18;28.90;94.30
19044;DHT22;9654;52.302;8.120;2022-07-03T11:29:52;29.00;94.90
19044;DHT22;9654;52.302;8.120;2022-07-03T11:32:51;28.70;95.40
19044;DHT22;9654;52.302;8.120;2022-07-03T11:35:50;28.50;92.70
19044;DHT22;9654;52.302;8.120;2022-07-03T11:38:24;28.80;93.60
19044;DHT22;9654;52.302;8.120;2022-07-03T11:40:52;28.80;94.30
19044;DHT22;9654;52.302;8.120;2022-07-03T11:43:19;28.40;94.60
19044;DHT22;9654;52.302;8.120;2022-07-03T11:45:47;28.30;95.40
19044;DHT22;9654;52.302;8.120;2022-07-03T11:48:15;28.00;95.20
19044;DHT22;9654;52.302;8.120;2022-07-03T11:50:43;27.50;95.60
19044;DHT22;9654;52.302;8.120;2022-07-03T11:53:22;27.20;96.00
19044;DHT22;9654;52.302;8.120;2022-07-03T11:55:52;27.00;95.30
19044;DHT22;9654;52.302;8.120;2022-07-03T11:58:19;26.90;95.40
19044;DHT22;9654;52.302;8.120;2022-07-03T12:00:46;26.90;96.00
19044;DHT22;9654;52.302;8.120;2022-07-03T12:03:21;26.80;95.60
19044;DHT22;9654;52.302;8.120;2022-07-03T12:05:56;27.10;95.70
19044;DHT22;9654;52.302;8.120;2022-07-03T12:08:29;27.70;95.50
19044;DHT22;9654;52.302;8.120;2022-07-03T12:10:58;28.30;94.70
19044;DHT22;9654;52.302;8.120;2022-07-03T12:13:26;28.60;94.80
19044;DHT22;9654;52.302;8.120;2022-07-03T12:15:53;28.70;94.80
19044;DHT22;9654;52.302;8.120;2022-07-03T12:18:20;28.10;95.30
19044;DHT22;9654;52.302;8.120;2022-07-03T12:20:47;27.90;95.60
19044;DHT22;9654;52.302;8.120;2022-07-03T12:23:14;27.70;96.20
19044;DHT22;9654;52.302;8.120;2022-07-03T12:25:42;27.50;95.70
19044;DHT22;9654;52.302;8.120;2022-07-03T12:28:09;27.40;95.80
19044;DHT22;9654;52.302;8.120;2022-07-03T12:30:37;27.80;95.10
19044;DHT22;9654;52.302;8.120;2022-07-03T12:33:04;28.40;95.10
19044;DHT22;9654;52.302;8.120;2022-07-03T12:35:32;28.30;94.40
19044;DHT22;9654;52.302;8.120;2022-07-03T12:37:59;28.00;95.00
19044;DHT22;9654;52.302;8.120;2022-07-03T12:40:26;28.00;95.60
19044;DHT22;9654;52.302;8.120;2022-07-03T12:42:55;27.90;95.70
19044;DHT22;9654;52.302;8.120;2022-07-03T12:45:25;27.80;95.80
19044;DHT22;9654;52.302;8.120;2022-07-03T12:47:59;27.30;96.00
19044;DHT22;9654;52.302;8.120;2022-07-03T12:50:26;27.10;96.00
19044;DHT22;9654;52.302;8.120;2022-07-03T12:52:54;27.00;95.70
19044;DHT22;9654;52.302;8.120;2022-07-03T12:55:25;27.10;96.30
19044;DHT22;9654;52.302;8.120;2022-07-03T12:58:11;27.30;96.00
19044;DHT22;9654;52.302;8.120;2022-07-03T13:00:56;27.10;96.30
19044;DHT22;9654;52.302;8.120;2022-07-03T13:03:27;27.00;96.70
19044;DHT22;9654;52.302;8.120;2022-07-03T13:05:54;27.20;96.40
19044;DHT22;9654;52.302;8.120;2022-07-03T13:08:20;27.70;95.80
19044;DHT22;9654;52.302;8.120;2022-07-03T13:10:55;28.00;96.30
19044;DHT22;9654;52.302;8.120;2022-07-03T13:13:23;28.20;94.80
19044;DHT22;9654;52.302;8.120;2022-07-03T13:15:50;27.80;95.30
19044;DHT22;9654;52.302;8.120;2022-07-03T13:18:18;27.40;96.20
19044;DHT22;9654;52.302;8.120;2022-07-03T13:20:44;27.20;96.70
19044;DHT22;9654;52.302;8.120;2022-07-03T13:23:11;26.80;96.90
19044;DHT22;9654;52.302;8.120;2022-07-03T13:25:38;26.40;97.40
19044;DHT22;9654;52.302;8.120;2022-07-03T13:28:10;26.40;97.70
19044;DHT22;9654;52.302;8.120;2022-07-03T13:30:40;26.40;97.90
19044;DHT22;9654;52.302;8.120;2022-07-03T13:33:07;26.90;97.90
19044;DHT22;9654;52.302;8.120;2022-07-03T13:35:34;27.00;97.30
19044;DHT22;9654;52.302;8.120;2022-07-03T13:38:02;26.90;97.50
19044;DHT22;9654;52.302;8.120;2022-07-03T13:40:29;26.80;97.40
19044;DHT22;9654;52.302;8.120;2022-07-03T13:42:56;26.60;97.90
19044;DHT22;9654;52.302;8.120;2022-07-03T13:45:22;26.50;98.40
19044;DHT22;9654;52.302;8.120;2022-07-03T13:47:51;26.60;98.20
19044;DHT22;9654;52.302;8.120;2022-07-03T13:50:17;27.00;98.20
19044;DHT22;9654;52.302;8.120;2022-07-03T13:52:44;27.10;98.30
19044;DHT22;9654;52.302;8.120;2022-07-03T13:55:11;27.00;98.40
19044;DHT22;9654;52.302;8.120;2022-07-03T13:57:38;27.30;98.30
19044;DHT22;9654;52.302;8.120;2022-07-03T14:00:06;27.50;97.70
19044;DHT22;9654;52.302;8.120;2022-07-03T14:02:33;27.60;98.20
19044;DHT22;9654;52.302;8.120;2022-07-03T14:05:01;27.70;97.50
19044;DHT22;9654;52.302;8.120;2022-07-03T14:07:28;27.90;97.60
19044;DHT22;9654;52.302;8.120;2022-07-03T14:09:55;28.00;97.30
19044;DHT22;9654;52.302;8.120;2022-07-03T14:12:21;27.90;97.50
19044;DHT22;9654;52.302;8.120;2022-07-03T14:14:48;28.00;97.30
19044;DHT22;9654;52.302;8.120;2022-07-03T14:17:15;27.70;96.90
19044;DHT22;9654;52.302;8.120;2022-07-03T14:19:42;27.70;97.50
19044;DHT22;9654;52.302;8.120;2022-07-03T14:22:10;27.50;96.40
19044;DHT22;9654;52.302;8.120;2022-07-03T14:24:37;27.20;97.50
19044;DHT22;9654;52.302;8.120;2022-07-03T14:27:04;27.50;97.50
19044;DHT22;9654;52.302;8.120;2022-07-03T14:29:48;27.80;97.30
19044;DHT22;9654;52.302;8.120;2022-07-03T14:32:33;27.90;96.60
19044;DHT22;9654;52.302;8.120;2022-07-03T14:35:01;27.70;96.10
19044;DHT22;9654;52.302;8.120;2022-07-03T14:37:30;27.80;96.70
19044;DHT22;9654;52.302;8.120;2022-07-03T14:39:57;28.00;95.40
19044;DHT22;9654;52.302;8.120;2022-07-03T14:42:24;28.10;95.60
19044;DHT22;9654;52.302;8.120;2022-07-03T14:44:51;28.10;95.60
19044;DHT22;9654;52.302;8.120;2022-07-03T14:47:18;27.60;95.10
19044;DHT22;9654;52.302;8.120;2022-07-03T14:49:46;27.70;95.60
19044;DHT22;9654;52.302;8.120;2022-07-03T14:52:13;27.90;95.10
19044;DHT22;9654;52.302;8.120;2022-07-03T14:54:41;28.40;95.60
19044;DHT22;9654;52.302;8.120;2022-07-03T14:57:18;28.50;94.70
19044;DHT22;9654;52.302;8.120;2022-07-03T14:59:52;28.00;95.10
19044;DHT22;9654;52.302;8.120;2022-07-03T15:02:21;28.20;94.70
19044;DHT22;9654;52.302;8.120;2022-07-03T15:05:02;28.40;94.60
19044;DHT22;9654;52.302;8.120;2022-07-03T15:07:34;28.80;94.20
19044;DHT22;9654;52.302;8.120;2022-07-03T15:10:06;28.80;93.60
19044;DHT22;9654;52.302;8.120;2022-07-03T15:12:37;28.80;93.90
19044;DHT22;9654;52.302;8.120;2022-07-03T15:15:07;28.70;92.90
19044;DHT22;9654;52.302;8.120;2022-07-03T15:17:35;28.70;93.00
19044;DHT22;9654;52.302;8.120;2022-07-03T15:20:03;28.30;93.60
19044;DHT22;9654;52.302;8.120;2022-07-03T15:22:30;27.40;93.30
19044;DHT22;9654;52.302;8.120;2022-07-03T15:24:58;27.10;94.10
19044;DHT22;9654;52.302;8.120;2022-07-03T15:27:27;27.10;94.40
19044;DHT22;9654;52.302;8.120;2022-07-03T15:29:55;27.40;93.90
19044;DHT22;9654;52.302;8.120;2022-07-03T15:32:22;27.80;93.90
19044;DHT22;9654;52.302;8.120;2022-07-03T15:34:49;27.90;93.70
19044;DHT22;9654;52.302;8.120;2022-07-03T15:37:27;27.80;93.60
19044;DHT22;9654;52.302;8.120;2022-07-03T15:40:02;27.90;93.10
19044;DHT22;9654;52.302;8.120;2022-07-03T15:42:41;28.00;92.60
19044;DHT22;9654;52.302;8.120;2022-07-03T15:45:20;28.10;92.50
19044;DHT22;9654;52.302;8.120;2022-07-03T15:47:59;27.70;92.80
19044;DHT22;9654;52.302;8.120;2022-07-03T15:50:35;27.30;93.30
19044;DHT22;9654;52.302;8.120;2022-07-03T15:53:04;27.00;94.20
19044;DHT22;9654;52.302;8.120;2022-07-03T15:55:35;26.60;93.60
19044;DHT22;9654;52.302;8.120;2022-07-03T15:58:10;26.30;93.70
19044;DHT22;9654;52.302;8.120;2022-07-03T16:00:39;26.70;94.00
19044;DHT22;9654;52.302;8.120;2022-07-03T16:03:12;27.10;94.20
19044;DHT22;9654;52.302;8.120;2022-07-03T16:05:40;27.60;93.60
19044;DHT22;9654;52.302;8.120;2022-07-03T16:08:10;27.80;93.60
19044;DHT22;9654;52.302;8.120;2022-07-03T16:10:38;27.80;93.30